sensor_id;sensor_type;location;lat;lon;timestamp;pressure;altitude;pressure_sealevel;temperature;humidity
21779;BME280;11050;52.222;20.916;2023-10-08T00:02:24;99750.53;;;11.94;100.00
21779;BME280;11050;52.222;20.916;2023-10-08T00:04:52;99759.06;;;11.98;100.00
21779;BME280;11050;52.222;20.916;2023-10-08T00:07:18;99750.25;;;12.01;100.00
21779;BME280;11050;52.222;20.916;2023-10-08T00:09:50;99759.59;;;12.05;100.00
21779;BME280;11050;52.222;20.916;2023-10-08T00:12:18;99754.66;;;12.02;100.00
21779;BME280;11050;52.222;20.916;2023-10-08T00:14:45;99752.47;;;11.99;100.00
21779;BME280;11050;52.222;20.916;2023-10-08T00:17:16;99753.28;;;11.94;100.00
21779;BME280;11050;52.222;20.916;2023-10-08T00:19:43;99747.22;;;11.92;100.00
21779;BME280;11050;52.222;20.916;2023-10-08T00:22:12;99737.59;;;11.95;100.00
21779;BME280;11050;52.222;20.916;2023-10-08T00:24:43;99732.63;;;11.92;100.00
21779;BME280;11050;52.222;20.916;2023-10-08T00:27:12;99722.72;;;11.91;100.00
21779;BME280;11050;52.222;20.916;2023-10-08T00:29:40;99718.59;;;11.88;100.00
21779;BME280;11050;52.222;20.916;2023-10-08T00:32:09;99707.31;;;11.85;100.00
21779;BME280;11050;52.222;20.916;2023-10-08T00:34:42;99723.25;;;11.83;100.00
21779;BME280;11050;52.222;20.916;2023-10-08T00:37:10;99728.78;;;11.78;100.00
21779;BME280;11050;52.222;20.916;2023-10-08T00:39:37;99730.41;;;11.79;100.00
21779;BME280;11050;52.222;20.916;2023-10-08T00:42:06;99729.88;;;11.77;100.00
21779;BME280;11050;52.222;20.916;2023-10-08T00:44:34;99735.94;;;11.79;100.00
21779;BME280;11050;52.222;20.916;2023-10-08T00:47:19;99741.16;;;11.75;100.00
21779;BME280;11050;52.222;20.916;2023-10-08T00:49:51;99725.75;;;11.79;100.00
21779;BME280;11050;52.222;20.916;2023-10-08T00:52:30;99726.03;;;11.83;100.00
21779;BME280;11050;52.222;20.916;2023-10-08T00:55:04;99721.09;;;11.80;100.00
21779;BME280;11050;52.222;20.916;2023-10-08T00:57:30;99721.91;;;11.75;100.00
21779;BME280;11050;52.222;20.916;2023-10-08T00:59:59;99705.09;;;11.72;100.00
21779;BME280;11050;52.222;20.916;2023-10-08T01:02:30;99717.78;;;11.73;100.00
21779;BME280;11050;52.222;20.916;2023-10-08T01:05:11;99729.31;;;11.75;100.00
21779;BME280;11050;52.222;20.916;2023-10-08T01:07:41;99730.16;;;11.70;100.00
21779;BME280;11050;52.222;20.916;2023-10-08T01:10:10;99724.94;;;11.69;100.00
21779;BME280;11050;52.222;20.916;2023-10-08T01:12:39;99732.09;;;11.70;100.00
21779;BME280;11050;52.222;20.916;2023-10-08T01:15:29;99735.94;;;11.69;100.00
21779;BME280;11050;52.222;20.916;2023-10-08T01:17:56;99715.00;;;11.68;100.00
21779;BME280;11050;52.222;20.916;2023-10-08T01:20:25;99716.63;;;11.64;100.00
21779;BME280;11050;52.222;20.916;2023-10-08T01:23:06;99718.88;;;11.67;100.00
21779;BME280;11050;52.222;20.916;2023-10-08T01:25:40;99719.69;;;11.67;100.00
21779;BME280;11050;52.222;20.916;2023-10-08T01:28:07;99716.13;;;11.67;100.00
21779;BME280;11050;52.222;20.916;2023-10-08T01:30:56;99709.78;;;11.66;100.00
21779;BME280;11050;52.222;20.916;2023-10-08T01:33:30;99701.78;;;11.65;100.00
21779;BME280;11050;52.222;20.916;2023-10-08T01:35:57;99711.13;;;11.64;100.00
21779;BME280;11050;52.222;20.916;2023-10-08T01:38:33;99712.78;;;11.65;100.00
21779;BME280;11050;52.222;20.916;2023-10-08T01:40:59;99722.41;;;11.62;100.00
21779;BME280;11050;52.222;20.916;2023-10-08T01:43:36;99720.50;;;11.63;100.00
21779;BME280;11050;52.222;20.916;2023-10-08T01:46:04;99724.34;;;11.62;100.00
21779;BME280;11050;52.222;20.916;2023-10-08T01:48:30;99737.03;;;11.68;100.00
21779;BME280;11050;52.222;20.916;2023-10-08T01:51:02;99754.09;;;11.70;100.00
21779;BME280;11050;52.222;20.916;2023-10-08T01:53:35;99764.84;;;11.66;100.00
21779;BME280;11050;52.222;20.916;2023-10-08T01:56:02;99771.72;;;11.69;100.00
21779;BME280;11050;52.222;20.916;2023-10-08T01:58:30;99758.78;;;11.69;100.00
21779;BME280;11050;52.222;20.916;2023-10-08T02:00:56;99748.59;;;11.70;100.00
21779;BME280;11050;52.222;20.916;2023-10-08T02:03:26;99754.94;;;11.70;100.00
21779;BME280;11050;52.222;20.916;2023-10-08T02:05:53;99749.97;;;11.67;100.00
21779;BME280;11050;52.222;20.916;2023-10-08T02:08:20;99735.41;;;11.67;100.00
21779;BME280;11050;52.222;20.916;2023-10-08T02:10:46;99754.06;;;11.65;100.00
21779;BME280;11050;52.222;20.916;2023-10-08T02:13:15;99750.50;;;11.64;100.00
21779;BME280;11050;52.222;20.916;2023-10-08T02:15:45;99752.19;;;11.65;100.00
21779;BME280;11050;52.222;20.916;2023-10-08T02:18:11;99747.75;;;11.64;100.00
21779;BME280;11050;52.222;20.916;2023-10-08T02:20:42;99750.50;;;11.59;100.00
21779;BME280;11050;52.222;20.916;2023-10-08T02:23:09;99761.78;;;11.58;100.00
21779;BME280;11050;52.222;20.916;2023-10-08T02:25:38;99756.56;;;11.61;100.00
21779;BME280;11050;52.222;20.916;2023-10-08T02:28:07;99752.69;;;11.57;100.00
21779;BME280;11050;52.222;20.916;2023-10-08T02:30:38;99774.44;;;11.59;100.00
21779;BME280;11050;52.222;20.916;2023-10-08T02:33:05;99780.22;;;11.57;100.00
21779;BME280;11050;52.222;20.916;2023-10-08T02:35:42;99795.34;;;11.55;100.00
21779;BME280;11050;52.222;20.916;2023-10-08T02:38:11;99789.56;;;11.56;100.00
21779;BME280;11050;52.222;20.916;2023-10-08T02:40:39;99800.31;;;11.58;100.00
21779;BME280;11050;52.222;20.916;2023-10-08T02:43:10;99798.63;;;11.57;100.00
21779;BME280;11050;52.222;20.916;2023-10-08T02:45:37;99811.31;;;11.58;100.00
21779;BME280;11050;52.222;20.916;2023-10-08T02:48:07;99816.81;;;11.58;100.00
21779;BME280;11050;52.222;20.916;2023-10-08T02:50:44;99801.94;;;11.59;100.00
21779;BME280;11050;52.222;20.916;2023-10-08T02:53:11;99809.38;;;11.53;100.00
21779;BME280;11050;52.222;20.916;2023-10-08T02:55:41;99817.06;;;11.56;100.00
21779;BME280;11050;52.222;20.916;2023-10-08T02:58:10;99817.34;;;11.50;100.00
21779;BME280;11050;52.222;20.916;2023-10-08T03:00:49;99808.25;;;11.54;100.00
21779;BME280;11050;52.222;20.916;2023-10-08T03:03:16;99823.69;;;11.55;100.00
21779;BME280;11050;52.222;20.916;2023-10-08T03:05:46;99818.72;;;11.52;100.00
21779;BME280;11050;52.222;20.916;2023-10-08T03:08:17;99809.38;;;11.53;100.00
21779;BME280;11050;52.222;20.916;2023-10-08T03:10:47;99820.94;;;11.55;100.00
21779;BME280;11050;52.222;20.916;2023-10-08T03:13:22;99819.25;;;11.49;100.00
21779;BME280;11050;52.222;20.916;2023-10-08T03:15:48;99833.03;;;11.44;100.00
21779;BME280;11050;52.222;20.916;2023-10-08T03:18:23;99823.09;;;11.43;100.00
21779;BME280;11050;52.222;20.916;2023-10-08T03:20:50;99831.63;;;11.41;100.00
21779;BME280;11050;52.222;20.916;2023-10-08T03:23:17;99831.63;;;11.41;100.00
21779;BME280;11050;52.222;20.916;2023-10-08T03:25:56;99825.84;;;11.33;100.00
21779;BME280;11050;52.222;20.916;2023-10-08T03:28:30;99826.13;;;11.36;100.00
21779;BME280;11050;52.222;20.916;2023-10-08T03:31:01;99840.44;;;11.38;100.00
21779;BME280;11050;52.222;20.916;2023-10-08T03:33:35;99837.66;;;11.33;100.00
21779;BME280;11050;52.222;20.916;2023-10-08T03:36:04;99847.00;;;11.32;100.00
21779;BME280;11050;52.222;20.916;2023-10-08T03:38:37;99852.78;;;11.31;100.00
21779;BME280;11050;52.222;20.916;2023-10-08T03:41:24;99854.69;;;11.25;100.00
21779;BME280;11050;52.222;20.916;2023-10-08T03:43:54;99861.28;;;11.24;100.00
21779;BME280;11050;52.222;20.916;2023-10-08T03:46:33;99863.19;;;11.24;100.00
21779;BME280;11050;52.222;20.916;2023-10-08T03:49:12;99865.94;;;11.24;100.00
21779;BME280;11050;52.222;20.916;2023-10-08T03:51:47;99878.03;;;11.18;100.00
21779;BME280;11050;52.222;20.916;2023-10-08T03:54:18;99876.09;;;11.13;100.00
21779;BME280;11050;52.222;20.916;2023-10-08T03:56:46;99886.25;;;11.13;100.00
21779;BME280;11050;52.222;20.916;2023-10-08T03:59:15;99893.69;;;11.12;100.00
21779;BME280;11050;52.222;20.916;2023-10-08T04:02:01;99896.38;;;11.02;100.00
21779;BME280;11050;52.222;20.916;2023-10-08T04:04:41;99909.00;;;10.98;100.00
21779;BME280;11050;52.222;20.916;2023-10-08T04:07:18;99906.25;;;10.98;100.00
21779;BME280;11050;52.222;20.916;2023-10-08T04:09:58;99912.25;;;10.90;100.00
21779;BME280;11050;52.222;20.916;2023-10-08T04:12:37;99919.34;;;10.86;100.00
21779;BME280;11050;52.222;20.916;2023-10-08T04:15:10;99921.81;;;10.83;100.00
21779;BME280;11050;52.222;20.916;2023-10-08T04:17:39;99917.13;;;10.78;100.00
21779;BME280;11050;52.222;20.916;2023-10-08T04:20:16;99917.06;;;10.73;100.00
21779;BME280;11050;52.222;20.916;2023-10-08T04:23:20;99929.91;;;10.63;100.00
21779;BME280;11050;52.222;20.916;2023-10-08T04:25:49;99938.38;;;10.56;100.00
21779;BME280;11050;52.222;20.916;2023-10-08T04:28:20;99939.69;;;10.48;100.00
21779;BME280;11050;52.222;20.916;2023-10-08T04:30:47;99953.66;;;10.42;100.00
21779;BME280;11050;52.222;20.916;2023-10-08T04:33:14;99962.94;;;10.36;100.00
21779;BME280;11050;52.222;20.916;2023-10-08T04:35:44;99963.47;;;10.33;100.00
21779;BME280;11050;52.222;20.916;2023-10-08T04:38:23;99965.94;;;10.34;100.00
21779;BME280;11050;52.222;20.916;2023-10-08T04:40:52;99966.16;;;10.28;100.00
21779;BME280;11050;52.222;20.916;2023-10-08T04:43:20;99969.94;;;10.22;99.38
21779;BME280;11050;52.222;20.916;2023-10-08T04:45:57;99973.75;;;10.16;98.18
21779;BME280;11050;52.222;20.916;2023-10-08T04:48:25;99971.38;;;10.03;98.84
21779;BME280;11050;52.222;20.916;2023-10-08T04:50:52;99973.72;;;9.94;98.88
21779;BME280;11050;52.222;20.916;2023-10-08T04:53:34;99982.09;;;9.83;98.34
21779;BME280;11050;52.222;20.916;2023-10-08T04:56:05;99993.16;;;9.88;97.96
21779;BME280;11050;52.222;20.916;2023-10-08T04:58:35;100003.16;;;9.77;97.31
21779;BME280;11050;52.222;20.916;2023-10-08T05:01:06;100004.00;;;9.78;97.20
21779;BME280;11050;52.222;20.916;2023-10-08T05:03:56;100006.69;;;9.73;97.61
21779;BME280;11050;52.222;20.916;2023-10-08T05:06:23;100004.72;;;9.68;97.32
21779;BME280;11050;52.222;20.916;2023-10-08T05:11:50;100012.63;;;9.65;96.93
21779;BME280;11050;52.222;20.916;2023-10-08T05:14:18;100019.19;;;9.64;96.73
21779;BME280;11050;52.222;20.916;2023-10-08T05:17:08;100009.81;;;9.60;96.36
21779;BME280;11050;52.222;20.916;2023-10-08T05:19:49;100019.69;;;9.61;96.35
21779;BME280;11050;52.222;20.916;2023-10-08T05:22:45;100028.44;;;9.57;96.63
21779;BME280;11050;52.222;20.916;2023-10-08T05:25:21;100032.00;;;9.58;96.91
21779;BME280;11050;52.222;20.916;2023-10-08T05:27:46;100036.69;;;9.57;96.53
21779;BME280;11050;52.222;20.916;2023-10-08T05:30:13;100029.53;;;9.56;96.79
21779;BME280;11050;52.222;20.916;2023-10-08T05:32:52;100050.47;;;9.63;96.36
21779;BME280;11050;52.222;20.916;2023-10-08T05:35:41;100047.72;;;9.63;96.26
21779;BME280;11050;52.222;20.916;2023-10-08T05:38:11;100050.97;;;9.60;96.10
21779;BME280;11050;52.222;20.916;2023-10-08T05:40:56;100051.53;;;9.62;95.97
21779;BME280;11050;52.222;20.916;2023-10-08T05:43:37;100061.44;;;9.63;95.98
21779;BME280;11050;52.222;20.916;2023-10-08T05:46:11;100077.06;;;9.62;96.23
21779;BME280;11050;52.222;20.916;2023-10-08T05:48:55;100083.38;;;9.63;95.90
21779;BME280;11050;52.222;20.916;2023-10-08T05:51:38;100096.56;;;9.66;95.62
21779;BME280;11050;52.222;20.916;2023-10-08T05:54:16;100096.56;;;9.66;94.81
21779;BME280;11050;52.222;20.916;2023-10-08T05:57:05;100106.81;;;9.70;94.38
21779;BME280;11050;52.222;20.916;2023-10-08T05:59:31;100114.63;;;9.78;93.42
21779;BME280;11050;52.222;20.916;2023-10-08T06:02:06;100121.75;;;9.79;92.86
21779;BME280;11050;52.222;20.916;2023-10-08T06:04:53;100133.88;;;9.83;92.21
21779;BME280;11050;52.222;20.916;2023-10-08T06:07:19;100139.13;;;9.85;91.75
21779;BME280;11050;52.222;20.916;2023-10-08T06:09:58;100140.78;;;9.86;92.07
21779;BME280;11050;52.222;20.916;2023-10-08T06:12:39;100142.50;;;9.92;89.93
21779;BME280;11050;52.222;20.916;2023-10-08T06:15:10;100152.09;;;9.89;89.00
21779;BME280;11050;52.222;20.916;2023-10-08T06:17:37;100164.56;;;9.97;88.23
21779;BME280;11050;52.222;20.916;2023-10-08T06:20:35;100155.47;;;9.96;84.30
21779;BME280;11050;52.222;20.916;2023-10-08T06:23:02;100169.78;;;9.98;83.01
21779;BME280;11050;52.222;20.916;2023-10-08T06:25:33;100170.03;;;9.97;82.75
21779;BME280;11050;52.222;20.916;2023-10-08T06:28:19;100183.81;;;10.02;82.40
21779;BME280;11050;52.222;20.916;2023-10-08T06:30:47;100207.97;;;10.00;82.11
21779;BME280;11050;52.222;20.916;2023-10-08T06:33:15;100192.91;;;10.02;79.31
21779;BME280;11050;52.222;20.916;2023-10-08T06:35:42;100199.38;;;10.13;78.15
21779;BME280;11050;52.222;20.916;2023-10-08T06:38:22;100210.09;;;10.14;77.04
21779;BME280;11050;52.222;20.916;2023-10-08T06:40:50;100200.53;;;10.17;76.66
21779;BME280;11050;52.222;20.916;2023-10-08T06:43:18;100206.63;;;10.19;75.74
21779;BME280;11050;52.222;20.916;2023-10-08T06:45:48;100208.63;;;10.23;75.01
21779;BME280;11050;52.222;20.916;2023-10-08T06:48:19;100223.50;;;10.27;72.06
21779;BME280;11050;52.222;20.916;2023-10-08T06:50:51;100228.41;;;10.25;71.26
21779;BME280;11050;52.222;20.916;2023-10-08T06:53:18;100222.66;;;10.27;72.06
21779;BME280;11050;52.222;20.916;2023-10-08T06:55:46;100236.53;;;10.37;71.08
21779;BME280;11050;52.222;20.916;2023-10-08T06:58:14;100244.00;;;10.41;69.93
21779;BME280;11050;52.222;20.916;2023-10-08T07:00:41;100233.28;;;10.40;69.65
21779;BME280;11050;52.222;20.916;2023-10-08T07:03:13;100247.00;;;10.40;69.17
21779;BME280;11050;52.222;20.916;2023-10-08T07:05:43;100247.91;;;10.45;69.54
21779;BME280;11050;52.222;20.916;2023-10-08T07:08:13;100260.63;;;10.52;67.43
21779;BME280;11050;52.222;20.916;2023-10-08T07:10:40;100251.63;;;10.56;67.29
21779;BME280;11050;52.222;20.916;2023-10-08T07:13:11;100263.69;;;10.55;66.11
21779;BME280;11050;52.222;20.916;2023-10-08T07:15:36;100269.84;;;10.62;65.93
21779;BME280;11050;52.222;20.916;2023-10-08T07:18:06;100281.97;;;10.66;64.72
21779;BME280;11050;52.222;20.916;2023-10-08T07:20:37;100280.34;;;10.65;64.12
21779;BME280;11050;52.222;20.916;2023-10-08T07:23:08;100276.81;;;10.70;64.44
21779;BME280;11050;52.222;20.916;2023-10-08T07:25:59;100285.94;;;10.75;61.99
21779;BME280;11050;52.222;20.916;2023-10-08T07:28:43;100286.59;;;10.82;62.59
21779;BME280;11050;52.222;20.916;2023-10-08T07:31:23;100287.22;;;10.89;60.25
21779;BME280;11050;52.222;20.916;2023-10-08T07:33:53;100276.16;;;10.84;61.31
21779;BME280;11050;52.222;20.916;2023-10-08T07:36:27;100304.69;;;11.00;59.33
21779;BME280;11050;52.222;20.916;2023-10-08T07:38:54;100307.75;;;11.03;58.67
21779;BME280;11050;52.222;20.916;2023-10-08T07:41:20;100307.09;;;10.96;58.24
21779;BME280;11050;52.222;20.916;2023-10-08T07:43:47;100319.53;;;10.99;58.49
21779;BME280;11050;52.222;20.916;2023-10-08T07:46:22;100321.75;;;11.02;57.74
21779;BME280;11050;52.222;20.916;2023-10-08T07:48:47;100326.53;;;11.11;58.99
21779;BME280;11050;52.222;20.916;2023-10-08T07:51:16;100331.38;;;11.26;57.12
21779;BME280;11050;52.222;20.916;2023-10-08T07:53:48;100333.38;;;11.30;56.72
21779;BME280;11050;52.222;20.916;2023-10-08T07:56:14;100324.66;;;11.38;57.75
21779;BME280;11050;52.222;20.916;2023-10-08T07:58:40;100323.56;;;11.39;53.95
21779;BME280;11050;52.222;20.916;2023-10-08T08:01:09;100331.78;;;11.34;53.67
21779;BME280;11050;52.222;20.916;2023-10-08T08:03:36;100320.31;;;11.42;54.14
21779;BME280;11050;52.222;20.916;2023-10-08T08:06:06;100341.81;;;11.45;53.36
21779;BME280;11050;52.222;20.916;2023-10-08T08:08:37;100342.09;;;11.49;53.63
21779;BME280;11050;52.222;20.916;2023-10-08T08:11:05;100330.19;;;11.38;53.47
21779;BME280;11050;52.222;20.916;2023-10-08T08:13:39;100350.63;;;11.48;53.98
21779;BME280;11050;52.222;20.916;2023-10-08T08:16:11;100356.19;;;11.53;52.22
21779;BME280;11050;52.222;20.916;2023-10-08T08:18:44;100355.59;;;11.51;52.02
21779;BME280;11050;52.222;20.916;2023-10-08T08:21:12;100364.13;;;11.49;51.99
21779;BME280;11050;52.222;20.916;2023-10-08T08:23:46;100354.41;;;11.41;52.44
21779;BME280;11050;52.222;20.916;2023-10-08T08:26:20;100358.44;;;11.56;52.21
21779;BME280;11050;52.222;20.916;2023-10-08T08:29:05;100380.81;;;11.64;51.82
21779;BME280;11050;52.222;20.916;2023-10-08T08:31:35;100371.84;;;11.74;51.99
21779;BME280;11050;52.222;20.916;2023-10-08T08:34:06;100368.00;;;11.75;49.71
21779;BME280;11050;52.222;20.916;2023-10-08T08:36:39;100367.81;;;11.81;49.22
21779;BME280;11050;52.222;20.916;2023-10-08T08:39:12;100373.13;;;11.88;49.76
21779;BME280;11050;52.222;20.916;2023-10-08T08:41:52;100373.75;;;12.00;48.60
21779;BME280;11050;52.222;20.916;2023-10-08T08:44:21;100368.50;;;11.93;48.06
21779;BME280;11050;52.222;20.916;2023-10-08T08:46:48;100378.69;;;11.98;48.79
21779;BME280;11050;52.222;20.916;2023-10-08T08:49:14;100368.28;;;12.05;48.79
21779;BME280;11050;52.222;20.916;2023-10-08T08:51:41;100383.28;;;12.14;47.54
21779;BME280;11050;52.222;20.916;2023-10-08T08:54:08;100382.69;;;12.12;48.23
21779;BME280;11050;52.222;20.916;2023-10-08T08:56:37;100386.78;;;12.09;48.11
21779;BME280;11050;52.222;20.916;2023-10-08T08:59:07;100390.22;;;12.21;48.54
21779;BME280;11050;52.222;20.916;2023-10-08T09:01:38;100391.28;;;12.15;46.79
21779;BME280;11050;52.222;20.916;2023-10-08T09:04:05;100397.63;;;12.16;47.84
21779;BME280;11050;52.222;20.916;2023-10-08T09:06:36;100411.44;;;12.21;46.55
21779;BME280;11050;52.222;20.916;2023-10-08T09:09:07;100398.78;;;12.25;46.07
21779;BME280;11050;52.222;20.916;2023-10-08T09:11:59;100396.34;;;12.28;45.87
21779;BME280;11050;52.222;20.916;2023-10-08T09:14:27;100405.56;;;12.44;46.64
21779;BME280;11050;52.222;20.916;2023-10-08T09:16:59;100417.94;;;12.42;44.14
21779;BME280;11050;52.222;20.916;2023-10-08T09:19:26;100413.84;;;12.44;43.73
21779;BME280;11050;52.222;20.916;2023-10-08T09:22:10;100411.13;;;12.49;42.88
21779;BME280;11050;52.222;20.916;2023-10-08T09:24:40;100416.06;;;12.47;42.77
21779;BME280;11050;52.222;20.916;2023-10-08T09:27:10;100406.72;;;12.48;43.29
21779;BME280;11050;52.222;20.916;2023-10-08T09:29:44;100402.66;;;12.61;43.16
21779;BME280;11050;52.222;20.916;2023-10-08T09:32:12;100420.03;;;12.61;42.94
21779;BME280;11050;52.222;20.916;2023-10-08T09:34:49;100414.78;;;12.60;42.65
21779;BME280;11050;52.222;20.916;2023-10-08T09:37:18;100425.50;;;12.56;42.68
21779;BME280;11050;52.222;20.916;2023-10-08T09:39:49;100418.59;;;12.54;44.01
21779;BME280;11050;52.222;20.916;2023-10-08T09:42:16;100426.25;;;12.78;43.33
21779;BME280;11050;52.222;20.916;2023-10-08T09:44:47;100422.38;;;12.84;42.06
21779;BME280;11050;52.222;20.916;2023-10-08T09:47:21;100443.59;;;12.79;40.43
21779;BME280;11050;52.222;20.916;2023-10-08T09:50:03;100419.13;;;12.87;41.74
21779;BME280;11050;52.222;20.916;2023-10-08T09:52:45;100422.88;;;13.13;40.53
21779;BME280;11050;52.222;20.916;2023-10-08T09:55:18;100418.19;;;13.13;40.62
21779;BME280;11050;52.222;20.916;2023-10-08T09:57:44;100415.16;;;13.15;40.08
21779;BME280;11050;52.222;20.916;2023-10-08T10:00:10;100427.91;;;13.21;39.76
21779;BME280;11050;52.222;20.916;2023-10-08T10:02:44;100433.16;;;13.27;40.44
21779;BME280;11050;52.222;20.916;2023-10-08T10:05:11;100439.22;;;13.19;40.40
21779;BME280;11050;52.222;20.916;2023-10-08T10:07:37;100447.00;;;13.32;40.84
21779;BME280;11050;52.222;20.916;2023-10-08T10:10:29;100437.69;;;13.49;41.13
21779;BME280;11050;52.222;20.916;2023-10-08T10:13:02;100439.66;;;13.63;39.32
21779;BME280;11050;52.222;20.916;2023-10-08T10:15:28;100436.88;;;13.53;39.98
21779;BME280;11050;52.222;20.916;2023-10-08T10:18:08;100434.69;;;13.65;39.42
21779;BME280;11050;52.222;20.916;2023-10-08T10:20:38;100452.94;;;13.61;37.27
21779;BME280;11050;52.222;20.916;2023-10-08T10:23:44;100452.06;;;13.51;37.74
21779;BME280;11050;52.222;20.916;2023-10-08T10:26:30;100438.53;;;13.54;37.29
21779;BME280;11050;52.222;20.916;2023-10-08T10:31:41;100459.50;;;13.50;38.55
21779;BME280;11050;52.222;20.916;2023-10-08T10:34:15;100443.03;;;13.70;37.13
21779;BME280;11050;52.222;20.916;2023-10-08T10:36:47;100441.13;;;13.86;37.53
21779;BME280;11050;52.222;20.916;2023-10-08T10:39:21;100441.75;;;14.08;35.94
21779;BME280;11050;52.222;20.916;2023-10-08T10:41:56;100444.22;;;14.09;36.84
21779;BME280;11050;52.222;20.916;2023-10-08T10:44:25;100443.41;;;14.24;37.00
21779;BME280;11050;52.222;20.916;2023-10-08T10:46:52;100454.56;;;14.44;36.54
21779;BME280;11050;52.222;20.916;2023-10-08T10:49:38;100434.63;;;14.47;35.10
21779;BME280;11050;52.222;20.916;2023-10-08T10:52:15;100424.66;;;14.61;35.50
21779;BME280;11050;52.222;20.916;2023-10-08T10:55:05;100450.41;;;14.82;35.63
21779;BME280;11050;52.222;20.916;2023-10-08T10:57:42;100450.63;;;15.05;33.58
21779;BME280;11050;52.222;20.916;2023-10-08T11:00:09;100446.97;;;15.30;32.85
21779;BME280;11050;52.222;20.916;2023-10-08T11:03:05;100442.75;;;15.58;31.78
21779;BME280;11050;52.222;20.916;2023-10-08T11:05:50;100441.00;;;15.82;31.73
21779;BME280;11050;52.222;20.916;2023-10-08T11:08:18;100444.72;;;16.06;31.64
21779;BME280;11050;52.222;20.916;2023-10-08T11:10:47;100463.63;;;16.48;30.10
21779;BME280;11050;52.222;20.916;2023-10-08T11:13:24;100453.72;;;16.70;27.94
21779;BME280;11050;52.222;20.916;2023-10-08T11:16:05;100451.28;;;16.64;28.47
21779;BME280;11050;52.222;20.916;2023-10-08T11:18:31;100459.53;;;17.02;28.75
21779;BME280;11050;52.222;20.916;2023-10-08T11:21:09;100460.66;;;17.54;27.21
21779;BME280;11050;52.222;20.916;2023-10-08T11:23:47;100474.44;;;17.64;26.68
21779;BME280;11050;52.222;20.916;2023-10-08T11:26:19;100471.28;;;17.94;26.78
21779;BME280;11050;52.222;20.916;2023-10-08T11:28:47;100463.69;;;18.42;26.89
21779;BME280;11050;52.222;20.916;2023-10-08T11:31:15;100467.78;;;18.95;25.03
21779;BME280;11050;52.222;20.916;2023-10-08T11:33:46;100486.28;;;19.05;24.56
21779;BME280;11050;52.222;20.916;2023-10-08T11:36:22;100482.91;;;18.75;25.07
21779;BME280;11050;52.222;20.916;2023-10-08T11:38:59;100456.78;;;18.71;24.71
21779;BME280;11050;52.222;20.916;2023-10-08T11:41:34;100464.47;;;18.93;25.20
21779;BME280;11050;52.222;20.916;2023-10-08T11:44:17;100461.41;;;19.40;24.02
21779;BME280;11050;52.222;20.916;2023-10-08T11:46:49;100472.28;;;19.23;23.88
21779;BME280;11050;52.222;20.916;2023-10-08T11:49:18;100461.13;;;19.23;24.61
21779;BME280;11050;52.222;20.916;2023-10-08T11:51:46;100489.50;;;19.71;24.10
21779;BME280;11050;52.222;20.916;2023-10-08T11:54:12;100471.59;;;20.13;23.87
21779;BME280;11050;52.222;20.916;2023-10-08T11:56:39;100478.53;;;20.15;23.38
21779;BME280;11050;52.222;20.916;2023-10-08T11:59:05;100498.06;;;20.29;22.82
21779;BME280;11050;52.222;20.916;2023-10-08T12:01:38;100506.91;;;20.44;22.46
21779;BME280;11050;52.222;20.916;2023-10-08T12:04:09;100485.78;;;20.52;22.73
21779;BME280;11050;52.222;20.916;2023-10-08T12:06:40;100492.22;;;20.74;21.43
21779;BME280;11050;52.222;20.916;2023-10-08T12:09:15;100508.84;;;20.57;21.49
21779;BME280;11050;52.222;20.916;2023-10-08T12:11:41;100495.72;;;20.22;21.72
21779;BME280;11050;52.222;20.916;2023-10-08T12:14:08;100473.53;;;20.39;21.50
21779;BME280;11050;52.222;20.916;2023-10-08T12:16:34;100494.78;;;20.13;22.04
21779;BME280;11050;52.222;20.916;2023-10-08T12:19:05;100491.53;;;20.33;22.15
21779;BME280;11050;52.222;20.916;2023-10-08T12:21:41;100488.56;;;20.65;21.21
21779;BME280;11050;52.222;20.916;2023-10-08T12:24:08;100494.03;;;21.15;20.98
21779;BME280;11050;52.222;20.916;2023-10-08T12:26:41;100490.44;;;20.56;20.96
21779;BME280;11050;52.222;20.916;2023-10-08T12:29:15;100490.22;;;20.66;21.09
21779;BME280;11050;52.222;20.916;2023-10-08T12:31:43;100501.41;;;20.89;20.58
21779;BME280;11050;52.222;20.916;2023-10-08T12:34:16;100497.34;;;20.95;20.00
21779;BME280;11050;52.222;20.916;2023-10-08T12:36:42;100506.38;;;20.78;20.46
21779;BME280;11050;52.222;20.916;2023-10-08T12:39:08;100490.34;;;20.48;21.00
21779;BME280;11050;52.222;20.916;2023-10-08T12:41:44;100481.78;;;20.44;21.00
21779;BME280;11050;52.222;20.916;2023-10-08T12:44:11;100504.59;;;19.70;22.07
21779;BME280;11050;52.222;20.916;2023-10-08T12:46:37;100497.88;;;18.79;23.13
21779;BME280;11050;52.222;20.916;2023-10-08T12:49:03;100506.25;;;18.93;23.89
21779;BME280;11050;52.222;20.916;2023-10-08T12:51:30;100492.53;;;20.51;21.50
21779;BME280;11050;52.222;20.916;2023-10-08T12:54:00;100493.13;;;20.84;22.13
21779;BME280;11050;52.222;20.916;2023-10-08T12:56:33;100485.28;;;21.08;21.82
21779;BME280;11050;52.222;20.916;2023-10-08T12:59:04;100507.28;;;20.65;21.62
21779;BME280;11050;52.222;20.916;2023-10-08T13:01:36;100501.69;;;19.48;22.72
21779;BME280;11050;52.222;20.916;2023-10-08T13:04:06;100503.34;;;19.17;23.29
21779;BME280;11050;52.222;20.916;2023-10-08T13:06:41;100504.50;;;20.51;22.18
21779;BME280;11050;52.222;20.916;2023-10-08T13:09:11;100506.91;;;21.86;21.25
21779;BME280;11050;52.222;20.916;2023-10-08T13:11:40;100495.22;;;23.08;19.72
21779;BME280;11050;52.222;20.916;2023-10-08T13:14:06;100504.66;;;23.76;19.29